This is the latest recevied weather packets stored in our database for station/object SP2WM. If no packets are shown the sender has not sent any weather packets the latest 10 day(s).
| Time | Temp. | Humidity | Pressure | Rain* | Wind** | Luminosity | Snow |
|---|---|---|---|---|---|---|---|
| 1777733437 | 26.67° C | 27% | 1017.3 hPa | 0 mm | - | - | - |
| 1777732819 | 26.67° C | 27% | 1017.4 hPa | 0 mm | - | - | - |
| 1777732218 | 26.11° C | 26% | 1017.4 hPa | 0 mm | - | - | - |
| 1777731620 | 26.11° C | 26% | 1017.6 hPa | 0 mm | - | - | - |
| 1777731019 | 26.11° C | 26% | 1017.8 hPa | 0 mm | - | - | - |
| 1777730424 | 26.67° C | 25% | 1017.9 hPa | 0 mm | - | - | - |
| 1777729825 | 26.67° C | 25% | 1018 hPa | 0 mm | - | - | - |
| 1777729225 | 26.11° C | 26% | 1018.1 hPa | 0 mm | - | - | - |
| 1777728624 | 26.67° C | 24% | 1018.2 hPa | 0 mm | - | - | - |
| 1777727427 | 26.11° C | 25% | 1018.3 hPa | 0 mm | - | - | - |
| 1777726221 | 26.11° C | 26% | 1018.6 hPa | 0 mm | - | - | - |
| 1777725621 | 26.67° C | 25% | 1018.7 hPa | 0 mm | - | - | - |
| 1777725026 | 26.11° C | 26% | 1018.8 hPa | 0 mm | - | - | - |
| 1777724427 | 26.11° C | 26% | 1018.9 hPa | 0 mm | - | - | - |
| 1777723826 | 26.67° C | 26% | 1019.1 hPa | 0 mm | - | - | - |
| 1777722029 | 26.11° C | 26% | 1019.4 hPa | 0 mm | - | - | - |
| 1777721425 | 26.67° C | 26% | 1019.5 hPa | 0 mm | - | - | - |
| 1777720826 | 26.11° C | 28% | 1019.7 hPa | 0 mm | - | - | - |
| 1777720225 | 26.11° C | 27% | 1019.8 hPa | 0 mm | - | - | - |
| 1777719630 | 26.67° C | 28% | 1019.8 hPa | 0 mm | - | - | - |
| 1777719029 | 27.22° C | 27% | 1019.9 hPa | 0 mm | - | - | - |
| 1777718427 | 25° C | 30% | 1020.2 hPa | 0 mm | - | - | - |
| 1777717825 | 24.44° C | 29% | 1020.4 hPa | 0 mm | - | - | - |
| 1777717229 | 24.44° C | 30% | 1020.4 hPa | 0 mm | - | - | - |
| 1777716628 | 23.89° C | 31% | 1020.5 hPa | 0 mm | - | - | - |
* Rain latest hour (hover to see other rain measurements)
** Current wind speed in m/s (hover to see current wind gust speed)